sensor_id;sensor_type;location;lat;lon;timestamp;pressure;altitude;pressure_sealevel;temperature;humidity
64792;BME280;51226;47.504;19.074;2023-01-19T00:00:59;98653.84;;;6.39;90.93
64792;BME280;51226;47.504;19.074;2023-01-19T00:04:03;98646.78;;;6.32;91.34
64792;BME280;51226;47.504;19.074;2023-01-19T00:07:05;98658.25;;;6.42;90.48
64792;BME280;51226;47.504;19.074;2023-01-19T00:10:11;98653.72;;;6.35;90.76
64792;BME280;51226;47.504;19.074;2023-01-19T00:13:14;98643.41;;;6.36;90.63
64792;BME280;51226;47.504;19.074;2023-01-19T00:16:19;98646.97;;;6.40;90.56
64792;BME280;51226;47.504;19.074;2023-01-19T00:19:24;98642.50;;;6.34;91.18
64792;BME280;51226;47.504;19.074;2023-01-19T00:22:27;98644.31;;;6.37;90.84
64792;BME280;51226;47.504;19.074;2023-01-19T00:25:30;98644.00;;;6.26;91.47
64792;BME280;51226;47.504;19.074;2023-01-19T00:28:33;98650.31;;;6.36;90.60
64792;BME280;51226;47.504;19.074;2023-01-19T00:31:36;98648.44;;;6.30;90.79
64792;BME280;51226;47.504;19.074;2023-01-19T00:34:39;98647.56;;;6.29;90.67
64792;BME280;51226;47.504;19.074;2023-01-19T00:37:43;98638.97;;;6.30;91.06
64792;BME280;51226;47.504;19.074;2023-01-19T00:40:49;98653.72;;;6.35;90.50
64792;BME280;51226;47.504;19.074;2023-01-19T00:43:51;98650.22;;;6.33;90.19
64792;BME280;51226;47.504;19.074;2023-01-19T00:46:56;98646.69;;;6.29;90.47
64792;BME280;51226;47.504;19.074;2023-01-19T00:49:59;98656.25;;;6.32;90.22
64792;BME280;51226;47.504;19.074;2023-01-19T00:53:02;98648.50;;;6.33;89.80
64792;BME280;51226;47.504;19.074;2023-01-19T00:56:05;98646.69;;;6.29;90.12
64792;BME280;51226;47.504;19.074;2023-01-19T00:59:09;98642.00;;;6.16;90.68
64792;BME280;51226;47.504;19.074;2023-01-19T01:02:12;98641.25;;;6.20;90.84
64792;BME280;51226;47.504;19.074;2023-01-19T01:05:16;98628.31;;;6.20;90.60
64792;BME280;51226;47.504;19.074;2023-01-19T01:08:19;98631.56;;;6.12;90.66
64792;BME280;51226;47.504;19.074;2023-01-19T01:11:22;98638.28;;;6.06;90.84
64792;BME280;51226;47.504;19.074;2023-01-19T01:14:24;98640.84;;;6.04;90.26
64792;BME280;51226;47.504;19.074;2023-01-19T01:17:28;98629.84;;;6.13;89.44
64792;BME280;51226;47.504;19.074;2023-01-19T01:20:30;98618.53;;;6.09;89.63
64792;BME280;51226;47.504;19.074;2023-01-19T01:23:38;98622.03;;;6.10;89.19
64792;BME280;51226;47.504;19.074;2023-01-19T01:26:40;98636.75;;;6.12;88.91
64792;BME280;51226;47.504;19.074;2023-01-19T01:29:44;98640.06;;;6.07;88.87
64792;BME280;51226;47.504;19.074;2023-01-19T01:32:49;98642.84;;;6.15;87.99
64792;BME280;51226;47.504;19.074;2023-01-19T01:35:52;98636.06;;;5.89;88.98
64792;BME280;51226;47.504;19.074;2023-01-19T01:38:56;98627.28;;;5.83;89.82
64792;BME280;51226;47.504;19.074;2023-01-19T01:41:59;98632.44;;;5.83;89.67
64792;BME280;51226;47.504;19.074;2023-01-19T01:45:04;98626.34;;;5.81;89.62
64792;BME280;51226;47.504;19.074;2023-01-19T01:48:15;98633.00;;;5.72;90.06
64792;BME280;51226;47.504;19.074;2023-01-19T01:51:47;98641.00;;;5.80;89.76
64792;BME280;51226;47.504;19.074;2023-01-19T01:54:48;98637.47;;;5.77;89.51
64792;BME280;51226;47.504;19.074;2023-01-19T01:57:58;98634.94;;;5.80;89.09
64792;BME280;51226;47.504;19.074;2023-01-19T02:01:04;98646.19;;;5.80;89.40
64792;BME280;51226;47.504;19.074;2023-01-19T02:04:30;98653.72;;;5.72;89.62
64792;BME280;51226;47.504;19.074;2023-01-19T02:11:17;98674.44;;;5.74;89.40
64792;BME280;51226;47.504;19.074;2023-01-19T02:14:38;98669.19;;;5.71;89.42
64792;BME280;51226;47.504;19.074;2023-01-19T02:17:41;98657.16;;;5.71;88.62
64792;BME280;51226;47.504;19.074;2023-01-19T02:24:10;98601.88;;;5.69;88.61
64792;BME280;51226;47.504;19.074;2023-01-19T02:27:13;98608.72;;;5.67;88.33
64792;BME280;51226;47.504;19.074;2023-01-19T02:30:17;98638.00;;;5.66;88.57
64792;BME280;51226;47.504;19.074;2023-01-19T02:33:20;98662.13;;;5.65;88.64
64792;BME280;51226;47.504;19.074;2023-01-19T02:36:27;98679.31;;;5.63;88.55
64792;BME280;51226;47.504;19.074;2023-01-19T02:39:37;98669.97;;;5.68;88.24
64792;BME280;51226;47.504;19.074;2023-01-19T02:42:51;98656.09;;;5.66;88.44
64792;BME280;51226;47.504;19.074;2023-01-19T02:45:54;98644.13;;;5.68;87.88
64792;BME280;51226;47.504;19.074;2023-01-19T02:48:58;98645.81;;;5.68;88.11
64792;BME280;51226;47.504;19.074;2023-01-19T02:52:02;98623.63;;;5.76;86.85
64792;BME280;51226;47.504;19.074;2023-01-19T02:55:18;98613.13;;;5.70;86.15
64792;BME280;51226;47.504;19.074;2023-01-19T02:58:38;98617.25;;;5.63;87.04
64792;BME280;51226;47.504;19.074;2023-01-19T03:05:12;98650.63;;;5.55;87.11
64792;BME280;51226;47.504;19.074;2023-01-19T03:11:32;98654.03;;;5.54;87.23
64792;BME280;51226;47.504;19.074;2023-01-19T03:14:40;98653.25;;;5.57;86.96
64792;BME280;51226;47.504;19.074;2023-01-19T03:17:47;98653.53;;;5.66;86.40
64792;BME280;51226;47.504;19.074;2023-01-19T03:20:53;98666.28;;;5.60;86.34
64792;BME280;51226;47.504;19.074;2023-01-19T03:24:01;98679.94;;;5.56;86.36
64792;BME280;51226;47.504;19.074;2023-01-19T03:27:30;98698.69;;;5.49;86.78
64792;BME280;51226;47.504;19.074;2023-01-19T03:30:37;98686.59;;;5.48;87.22
64792;BME280;51226;47.504;19.074;2023-01-19T03:33:46;98653.06;;;5.51;86.40
64792;BME280;51226;47.504;19.074;2023-01-19T03:36:57;98643.44;;;5.45;86.71
64792;BME280;51226;47.504;19.074;2023-01-19T03:40:01;98635.03;;;5.52;85.72
64792;BME280;51226;47.504;19.074;2023-01-19T03:43:04;98602.03;;;5.44;86.10
64792;BME280;51226;47.504;19.074;2023-01-19T03:46:08;98590.69;;;5.38;86.57
64792;BME280;51226;47.504;19.074;2023-01-19T03:49:12;98594.88;;;5.35;86.98
64792;BME280;51226;47.504;19.074;2023-01-19T03:52:15;98606.09;;;5.35;86.89
64792;BME280;51226;47.504;19.074;2023-01-19T03:55:18;98623.22;;;5.32;86.71
64792;BME280;51226;47.504;19.074;2023-01-19T03:58:21;98624.94;;;5.31;86.38
64792;BME280;51226;47.504;19.074;2023-01-19T04:01:24;98629.31;;;5.34;86.75
64792;BME280;51226;47.504;19.074;2023-01-19T04:04:27;98631.84;;;5.32;86.90
64792;BME280;51226;47.504;19.074;2023-01-19T04:07:30;98651.97;;;5.43;85.83
64792;BME280;51226;47.504;19.074;2023-01-19T04:10:33;98665.34;;;5.29;86.07
64792;BME280;51226;47.504;19.074;2023-01-19T04:13:37;98627.53;;;5.33;85.67
64792;BME280;51226;47.504;19.074;2023-01-19T04:16:39;98661.63;;;5.21;86.34
64792;BME280;51226;47.504;19.074;2023-01-19T04:19:42;98648.09;;;5.28;85.31
64792;BME280;51226;47.504;19.074;2023-01-19T04:22:46;98664.97;;;5.17;85.78
64792;BME280;51226;47.504;19.074;2023-01-19T04:25:58;98667.59;;;5.18;86.05
64792;BME280;51226;47.504;19.074;2023-01-19T04:29:02;98651.19;;;5.16;86.05
64792;BME280;51226;47.504;19.074;2023-01-19T04:32:04;98653.66;;;5.13;86.27
64792;BME280;51226;47.504;19.074;2023-01-19T04:35:08;98651.81;;;5.09;86.09
64792;BME280;51226;47.504;19.074;2023-01-19T04:38:11;98653.31;;;5.03;86.08
64792;BME280;51226;47.504;19.074;2023-01-19T04:41:13;98647.31;;;5.04;85.73
64792;BME280;51226;47.504;19.074;2023-01-19T04:44:16;98639.69;;;5.07;85.53
64792;BME280;51226;47.504;19.074;2023-01-19T04:47:19;98630.25;;;5.09;84.61
64792;BME280;51226;47.504;19.074;2023-01-19T04:50:22;98635.63;;;5.15;83.60
64792;BME280;51226;47.504;19.074;2023-01-19T04:53:25;98633.66;;;5.06;84.63
64792;BME280;51226;47.504;19.074;2023-01-19T04:56:28;98618.91;;;5.04;84.05
64792;BME280;51226;47.504;19.074;2023-01-19T04:59:31;98644.91;;;5.08;82.91
64792;BME280;51226;47.504;19.074;2023-01-19T05:02:34;98647.91;;;4.95;83.46
64792;BME280;51226;47.504;19.074;2023-01-19T05:05:37;98656.59;;;4.97;83.72
64792;BME280;51226;47.504;19.074;2023-01-19T05:08:40;98664.12;;;4.91;83.95
64792;BME280;51226;47.504;19.074;2023-01-19T05:11:43;98679.16;;;5.03;82.01
64792;BME280;51226;47.504;19.074;2023-01-19T05:14:46;98681.72;;;5.03;82.65
64792;BME280;51226;47.504;19.074;2023-01-19T05:17:49;98663.53;;;4.98;82.84
64792;BME280;51226;47.504;19.074;2023-01-19T05:20:51;98670.47;;;5.00;82.43
64792;BME280;51226;47.504;19.074;2023-01-19T05:23:54;98692.06;;;5.03;82.63
64792;BME280;51226;47.504;19.074;2023-01-19T05:26:57;98691.88;;;4.96;83.29
64792;BME280;51226;47.504;19.074;2023-01-19T05:30:00;98697.97;;;4.98;83.60
64792;BME280;51226;47.504;19.074;2023-01-19T05:33:03;98699.81;;;5.03;83.31
64792;BME280;51226;47.504;19.074;2023-01-19T05:36:07;98707.38;;;4.96;83.66
64792;BME280;51226;47.504;19.074;2023-01-19T05:39:09;98705.66;;;4.97;84.02
64792;BME280;51226;47.504;19.074;2023-01-19T05:42:12;98709.00;;;4.94;84.30
64792;BME280;51226;47.504;19.074;2023-01-19T05:45:15;98704.16;;;5.04;83.28
64792;BME280;51226;47.504;19.074;2023-01-19T05:48:18;98692.84;;;5.00;83.34
64792;BME280;51226;47.504;19.074;2023-01-19T05:51:21;98694.69;;;5.04;83.63
64792;BME280;51226;47.504;19.074;2023-01-19T05:54:24;98683.37;;;5.00;84.12
64792;BME280;51226;47.504;19.074;2023-01-19T05:57:27;98691.00;;;4.96;84.01
64792;BME280;51226;47.504;19.074;2023-01-19T06:00:29;98683.28;;;4.97;84.29
64792;BME280;51226;47.504;19.074;2023-01-19T06:03:33;98659.56;;;5.09;82.93
64792;BME280;51226;47.504;19.074;2023-01-19T06:06:36;98649.09;;;5.05;83.10
64792;BME280;51226;47.504;19.074;2023-01-19T06:09:40;98665.50;;;5.07;83.06
64792;BME280;51226;47.504;19.074;2023-01-19T06:12:42;98655.06;;;5.04;83.04
64792;BME280;51226;47.504;19.074;2023-01-19T06:15:45;98664.09;;;5.16;80.98
64792;BME280;51226;47.504;19.074;2023-01-19T06:18:48;98646.06;;;5.18;80.73
64792;BME280;51226;47.504;19.074;2023-01-19T06:21:51;98655.28;;;5.10;81.60
64792;BME280;51226;47.504;19.074;2023-01-19T06:24:54;98662.19;;;5.11;81.55
64792;BME280;51226;47.504;19.074;2023-01-19T06:27:57;98650.13;;;5.10;81.83
64792;BME280;51226;47.504;19.074;2023-01-19T06:31:00;98638.94;;;5.11;81.93
64792;BME280;51226;47.504;19.074;2023-01-19T06:34:03;98631.13;;;5.09;82.24
64792;BME280;51226;47.504;19.074;2023-01-19T06:37:06;98649.09;;;5.05;82.96
64792;BME280;51226;47.504;19.074;2023-01-19T06:40:09;98662.00;;;5.05;82.90
64792;BME280;51226;47.504;19.074;2023-01-19T06:43:15;98681.78;;;5.04;82.78
64792;BME280;51226;47.504;19.074;2023-01-19T06:46:18;98685.00;;;5.24;81.46
64792;BME280;51226;47.504;19.074;2023-01-19T06:49:21;98692.22;;;5.34;80.90
64792;BME280;51226;47.504;19.074;2023-01-19T06:52:24;98700.34;;;5.18;81.95
64792;BME280;51226;47.504;19.074;2023-01-19T06:55:27;98690.72;;;5.14;82.30
64792;BME280;51226;47.504;19.074;2023-01-19T06:58:30;98682.09;;;5.13;82.27
64792;BME280;51226;47.504;19.074;2023-01-19T07:01:33;98685.16;;;5.29;81.14
64792;BME280;51226;47.504;19.074;2023-01-19T07:04:37;98680.56;;;5.20;81.64
64792;BME280;51226;47.504;19.074;2023-01-19T07:07:40;98677.13;;;5.19;82.00
64792;BME280;51226;47.504;19.074;2023-01-19T07:10:45;98669.44;;;5.23;81.92
64792;BME280;51226;47.504;19.074;2023-01-19T07:14:07;98677.34;;;5.27;81.81
64792;BME280;51226;47.504;19.074;2023-01-19T07:17:11;98670.56;;;5.31;81.34
64792;BME280;51226;47.504;19.074;2023-01-19T07:20:14;98652.63;;;5.35;81.17
64792;BME280;51226;47.504;19.074;2023-01-19T07:23:17;98672.38;;;5.33;81.49
64792;BME280;51226;47.504;19.074;2023-01-19T07:26:20;98689.72;;;5.37;81.06
64792;BME280;51226;47.504;19.074;2023-01-19T07:29:24;98699.25;;;5.38;81.25
64792;BME280;51226;47.504;19.074;2023-01-19T07:32:27;98705.34;;;5.41;81.61
64792;BME280;51226;47.504;19.074;2023-01-19T07:35:31;98704.78;;;5.51;80.75
64792;BME280;51226;47.504;19.074;2023-01-19T07:38:33;98695.09;;;5.44;81.38
64792;BME280;51226;47.504;19.074;2023-01-19T07:41:37;98676.59;;;5.59;80.95
64792;BME280;51226;47.504;19.074;2023-01-19T07:44:39;98691.97;;;5.54;80.98
64792;BME280;51226;47.504;19.074;2023-01-19T07:47:43;98709.09;;;5.50;81.34
64792;BME280;51226;47.504;19.074;2023-01-19T07:50:46;98698.91;;;5.55;80.87
64792;BME280;51226;47.504;19.074;2023-01-19T07:53:50;98706.97;;;5.66;80.26
64792;BME280;51226;47.504;19.074;2023-01-19T07:56:53;98714.56;;;5.61;80.88
64792;BME280;51226;47.504;19.074;2023-01-19T07:59:56;98722.97;;;5.54;80.50
64792;BME280;51226;47.504;19.074;2023-01-19T08:03:00;98715.22;;;5.54;80.98
64792;BME280;51226;47.504;19.074;2023-01-19T08:06:05;98727.22;;;5.52;80.78
64792;BME280;51226;47.504;19.074;2023-01-19T08:09:08;98713.47;;;5.53;81.32
64792;BME280;51226;47.504;19.074;2023-01-19T08:12:11;98715.38;;;5.59;80.61
64792;BME280;51226;47.504;19.074;2023-01-19T08:15:14;98698.25;;;5.62;80.30
64792;BME280;51226;47.504;19.074;2023-01-19T08:18:17;98695.69;;;5.64;80.03
64792;BME280;51226;47.504;19.074;2023-01-19T08:21:20;98693.94;;;5.63;80.57
64792;BME280;51226;47.504;19.074;2023-01-19T08:24:23;98688.19;;;5.73;79.37
64792;BME280;51226;47.504;19.074;2023-01-19T08:27:30;98687.22;;;5.69;79.64
64792;BME280;51226;47.504;19.074;2023-01-19T08:30:34;98692.03;;;5.86;78.39
64792;BME280;51226;47.504;19.074;2023-01-19T08:33:37;98694.41;;;5.78;78.51
64792;BME280;51226;47.504;19.074;2023-01-19T08:36:40;98705.59;;;5.77;78.60
64792;BME280;51226;47.504;19.074;2023-01-19T08:39:42;98705.59;;;5.77;78.88
64792;BME280;51226;47.504;19.074;2023-01-19T08:42:45;98703.69;;;5.71;79.64
64792;BME280;51226;47.504;19.074;2023-01-19T08:45:52;98710.59;;;5.72;80.12
64792;BME280;51226;47.504;19.074;2023-01-19T08:48:55;98706.34;;;5.74;80.34
64792;BME280;51226;47.504;19.074;2023-01-19T08:51:58;98713.59;;;5.86;79.40
64792;BME280;51226;47.504;19.074;2023-01-19T08:55:01;98713.00;;;5.95;79.17
64792;BME280;51226;47.504;19.074;2023-01-19T08:58:05;98714.00;;;5.99;79.28
64792;BME280;51226;47.504;19.074;2023-01-19T09:01:11;98708.66;;;5.94;79.68
64792;BME280;51226;47.504;19.074;2023-01-19T09:04:18;98706.88;;;5.91;80.31
64792;BME280;51226;47.504;19.074;2023-01-19T09:07:21;98715.75;;;6.00;79.87
64792;BME280;51226;47.504;19.074;2023-01-19T09:10:24;98703.38;;;5.91;80.43
64792;BME280;51226;47.504;19.074;2023-01-19T09:13:27;98699.06;;;5.90;81.16
64792;BME280;51226;47.504;19.074;2023-01-19T09:16:30;98700.06;;;5.95;80.39
64792;BME280;51226;47.504;19.074;2023-01-19T09:19:33;98695.91;;;5.99;80.11
64792;BME280;51226;47.504;19.074;2023-01-19T09:22:36;98706.19;;;5.97;80.77
64792;BME280;51226;47.504;19.074;2023-01-19T09:25:43;98711.50;;;6.02;80.74
64792;BME280;51226;47.504;19.074;2023-01-19T09:28:46;98718.56;;;6.07;80.66
64792;BME280;51226;47.504;19.074;2023-01-19T09:31:49;98700.44;;;6.07;80.78
64792;BME280;51226;47.504;19.074;2023-01-19T09:34:52;98703.84;;;6.05;81.37
64792;BME280;51226;47.504;19.074;2023-01-19T09:37:56;98712.44;;;6.04;82.05
64792;BME280;51226;47.504;19.074;2023-01-19T09:41:00;98716.88;;;6.09;81.80
64792;BME280;51226;47.504;19.074;2023-01-19T09:44:03;98710.22;;;6.18;81.63
64792;BME280;51226;47.504;19.074;2023-01-19T09:47:13;98709.72;;;6.31;80.70
64792;BME280;51226;47.504;19.074;2023-01-19T09:50:26;98699.25;;;6.26;80.63
64792;BME280;51226;47.504;19.074;2023-01-19T09:57:01;98711.06;;;6.17;80.63
64792;BME280;51226;47.504;19.074;2023-01-19T10:00:14;98709.53;;;6.23;80.43
64792;BME280;51226;47.504;19.074;2023-01-19T10:03:17;98709.41;;;6.19;81.18
64792;BME280;51226;47.504;19.074;2023-01-19T10:06:22;98718.00;;;6.18;81.43
64792;BME280;51226;47.504;19.074;2023-01-19T10:13:03;98724.03;;;6.17;80.99
64792;BME280;51226;47.504;19.074;2023-01-19T10:19:39;98730.09;;;6.19;81.38
64792;BME280;51226;47.504;19.074;2023-01-19T10:22:47;98730.16;;;6.20;81.66
64792;BME280;51226;47.504;19.074;2023-01-19T10:25:51;98728.28;;;6.16;80.97
64792;BME280;51226;47.504;19.074;2023-01-19T10:29:01;98735.16;;;6.14;80.21
64792;BME280;51226;47.504;19.074;2023-01-19T10:32:13;98728.00;;;6.05;80.33
64792;BME280;51226;47.504;19.074;2023-01-19T10:35:21;98728.72;;;6.01;80.99
64792;BME280;51226;47.504;19.074;2023-01-19T10:38:27;98736.31;;;5.95;80.94
64792;BME280;51226;47.504;19.074;2023-01-19T10:44:44;98740.72;;;5.98;80.12
64792;BME280;51226;47.504;19.074;2023-01-19T10:47:48;98749.97;;;5.91;80.75
64792;BME280;51226;47.504;19.074;2023-01-19T10:51:01;98760.91;;;5.82;81.61
64792;BME280;51226;47.504;19.074;2023-01-19T10:54:10;98752.09;;;5.75;81.94
64792;BME280;51226;47.504;19.074;2023-01-19T10:57:26;98758.84;;;5.70;82.25
64792;BME280;51226;47.504;19.074;2023-01-19T11:00:37;98764.09;;;5.73;81.03
64792;BME280;51226;47.504;19.074;2023-01-19T11:03:40;98759.56;;;5.66;81.23
64792;BME280;51226;47.504;19.074;2023-01-19T11:06:43;98754.38;;;5.65;81.38
64792;BME280;51226;47.504;19.074;2023-01-19T11:09:46;98766.41;;;5.64;81.48
64792;BME280;51226;47.504;19.074;2023-01-19T11:16:03;98755.94;;;5.61;80.90
64792;BME280;51226;47.504;19.074;2023-01-19T11:19:19;98755.03;;;5.59;81.34
64792;BME280;51226;47.504;19.074;2023-01-19T11:22:31;98755.38;;;5.70;80.24
64792;BME280;51226;47.504;19.074;2023-01-19T11:25:35;98754.31;;;5.63;79.96
64792;BME280;51226;47.504;19.074;2023-01-19T11:28:39;98753.38;;;5.61;79.64
64792;BME280;51226;47.504;19.074;2023-01-19T11:31:47;98749.16;;;5.63;79.62
64792;BME280;51226;47.504;19.074;2023-01-19T11:34:50;98751.72;;;5.63;79.16
64792;BME280;51226;47.504;19.074;2023-01-19T11:44:29;98770.66;;;5.62;79.22
64792;BME280;51226;47.504;19.074;2023-01-19T11:47:45;98768.00;;;5.61;79.60
64792;BME280;51226;47.504;19.074;2023-01-19T11:50:52;98766.25;;;5.60;79.98
64792;BME280;51226;47.504;19.074;2023-01-19T11:53:55;98765.13;;;5.79;78.64
64792;BME280;51226;47.504;19.074;2023-01-19T11:56:59;98773.09;;;5.85;nan
64792;BME280;51226;47.504;19.074;2023-01-19T12:00:07;98776.50;;;5.84;78.17
64792;BME280;51226;47.504;19.074;2023-01-19T12:03:37;98779.22;;;5.88;78.69
64792;BME280;51226;47.504;19.074;2023-01-19T12:06:43;98786.22;;;5.92;78.52
64792;BME280;51226;47.504;19.074;2023-01-19T12:09:56;98785.59;;;5.98;77.76
64792;BME280;51226;47.504;19.074;2023-01-19T12:13:02;98790.59;;;5.93;77.79
64792;BME280;51226;47.504;19.074;2023-01-19T12:16:09;98795.56;;;5.87;78.22
64792;BME280;51226;47.504;19.074;2023-01-19T12:19:17;98803.31;;;5.87;78.34
64792;BME280;51226;47.504;19.074;2023-01-19T12:22:25;98797.28;;;5.87;78.19
64792;BME280;51226;47.504;19.074;2023-01-19T12:28:45;98813.09;;;5.69;79.15
64792;BME280;51226;47.504;19.074;2023-01-19T12:35:57;98825.00;;;5.64;80.10
64792;BME280;51226;47.504;19.074;2023-01-19T12:39:13;98826.78;;;5.65;80.06
64792;BME280;51226;47.504;19.074;2023-01-19T12:42:18;98822.94;;;5.81;78.59
64792;BME280;51226;47.504;19.074;2023-01-19T12:45:23;98827.75;;;5.68;79.83
64792;BME280;51226;47.504;19.074;2023-01-19T12:48:31;98826.69;;;5.62;79.25
64792;BME280;51226;47.504;19.074;2023-01-19T12:51:34;98842.09;;;5.59;78.89
64792;BME280;51226;47.504;19.074;2023-01-19T12:54:42;98848.91;;;5.56;80.03
64792;BME280;51226;47.504;19.074;2023-01-19T12:57:58;98843.16;;;5.65;79.78
64792;BME280;51226;47.504;19.074;2023-01-19T13:01:16;98847.47;;;5.66;79.79
64792;BME280;51226;47.504;19.074;2023-01-19T13:04:32;98856.72;;;5.58;80.12
64792;BME280;51226;47.504;19.074;2023-01-19T13:14:35;98881.22;;;5.69;79.96
64792;BME280;51226;47.504;19.074;2023-01-19T13:17:49;98889.41;;;5.82;79.93
64792;BME280;51226;47.504;19.074;2023-01-19T13:21:01;98899.91;;;5.88;80.07
64792;BME280;51226;47.504;19.074;2023-01-19T13:24:08;98905.94;;;5.87;79.99
64792;BME280;51226;47.504;19.074;2023-01-19T13:27:12;98910.66;;;5.99;78.65
64792;BME280;51226;47.504;19.074;2023-01-19T13:30:25;98917.44;;;5.95;78.95
64792;BME280;51226;47.504;19.074;2023-01-19T13:33:36;98923.59;;;5.99;77.74
64792;BME280;51226;47.504;19.074;2023-01-19T13:36:49;98915.00;;;6.00;78.20
64792;BME280;51226;47.504;19.074;2023-01-19T13:39:53;98920.16;;;5.98;77.71
64792;BME280;51226;47.504;19.074;2023-01-19T13:42:56;98927.88;;;5.97;78.17
64792;BME280;51226;47.504;19.074;2023-01-19T13:46:01;98940.25;;;6.07;77.49
64792;BME280;51226;47.504;19.074;2023-01-19T13:49:21;98943.44;;;5.98;78.19
64792;BME280;51226;47.504;19.074;2023-01-19T13:52:28;98947.13;;;6.06;77.22
64792;BME280;51226;47.504;19.074;2023-01-19T13:55:30;98951.38;;;6.04;76.37
64792;BME280;51226;47.504;19.074;2023-01-19T13:58:34;98958.97;;;5.98;76.71
64792;BME280;51226;47.504;19.074;2023-01-19T14:01:39;98957.00;;;5.92;77.05
64792;BME280;51226;47.504;19.074;2023-01-19T14:04:43;98969.12;;;5.93;76.19
64792;BME280;51226;47.504;19.074;2023-01-19T14:07:46;98968.75;;;5.83;76.75
64792;BME280;51226;47.504;19.074;2023-01-19T14:13:57;98968.00;;;5.61;77.40
64792;BME280;51226;47.504;19.074;2023-01-19T14:17:01;98962.69;;;5.56;77.58
64792;BME280;51226;47.504;19.074;2023-01-19T14:20:04;98956.31;;;5.47;78.56
64792;BME280;51226;47.504;19.074;2023-01-19T14:26:46;98945.25;;;5.51;78.79
64792;BME280;51226;47.504;19.074;2023-01-19T14:29:52;98944.72;;;5.61;77.60
64792;BME280;51226;47.504;19.074;2023-01-19T14:32:56;98958.16;;;5.75;76.80
64792;BME280;51226;47.504;19.074;2023-01-19T14:36:10;98970.72;;;5.64;77.32
64792;BME280;51226;47.504;19.074;2023-01-19T14:39:24;98978.53;;;5.66;76.54
64792;BME280;51226;47.504;19.074;2023-01-19T14:42:34;98977.13;;;5.50;77.40
64792;BME280;51226;47.504;19.074;2023-01-19T14:45:38;98981.56;;;5.54;76.67
64792;BME280;51226;47.504;19.074;2023-01-19T14:48:47;98991.19;;;5.58;76.06
64792;BME280;51226;47.504;19.074;2023-01-19T14:51:50;98997.59;;;5.44;76.29
64792;BME280;51226;47.504;19.074;2023-01-19T14:54:53;99007.06;;;5.43;75.65
64792;BME280;51226;47.504;19.074;2023-01-19T14:57:57;99005.00;;;5.34;75.82
64792;BME280;51226;47.504;19.074;2023-01-19T15:01:01;99016.78;;;5.26;76.66
64792;BME280;51226;47.504;19.074;2023-01-19T15:04:04;99025.41;;;5.27;76.00
64792;BME280;51226;47.504;19.074;2023-01-19T15:07:15;99043.81;;;5.12;75.94
64792;BME280;51226;47.504;19.074;2023-01-19T15:10:20;99056.34;;;5.03;76.14
64792;BME280;51226;47.504;19.074;2023-01-19T15:13:25;99076.16;;;5.02;76.26
64792;BME280;51226;47.504;19.074;2023-01-19T15:16:31;99085.84;;;4.85;77.70
64792;BME280;51226;47.504;19.074;2023-01-19T15:19:36;99080.41;;;4.79;77.96
64792;BME280;51226;47.504;19.074;2023-01-19T15:22:38;99060.47;;;4.97;77.08
64792;BME280;51226;47.504;19.074;2023-01-19T15:25:41;99065.47;;;4.93;77.02
64792;BME280;51226;47.504;19.074;2023-01-19T15:28:44;99052.19;;;4.83;78.37
64792;BME280;51226;47.504;19.074;2023-01-19T15:31:49;99046.97;;;4.82;78.60
64792;BME280;51226;47.504;19.074;2023-01-19T15:34:52;99058.09;;;4.81;78.98
64792;BME280;51226;47.504;19.074;2023-01-19T15:37:55;99062.66;;;4.87;78.23
64792;BME280;51226;47.504;19.074;2023-01-19T15:40:58;99072.53;;;4.76;78.13
64792;BME280;51226;47.504;19.074;2023-01-19T15:44:01;99085.66;;;4.80;77.45
64792;BME280;51226;47.504;19.074;2023-01-19T15:47:06;99080.88;;;4.69;78.06
64792;BME280;51226;47.504;19.074;2023-01-19T15:50:09;99079.88;;;4.65;78.26
64792;BME280;51226;47.504;19.074;2023-01-19T15:53:17;99084.16;;;4.64;78.62
64792;BME280;51226;47.504;19.074;2023-01-19T15:56:26;99093.59;;;4.64;78.16
64792;BME280;51226;47.504;19.074;2023-01-19T15:59:29;99096.13;;;4.62;78.36
64792;BME280;51226;47.504;19.074;2023-01-19T16:02:32;99097.19;;;4.68;77.73
64792;BME280;51226;47.504;19.074;2023-01-19T16:05:35;99117.53;;;4.60;77.50
64792;BME280;51226;47.504;19.074;2023-01-19T16:08:44;99143.66;;;4.68;77.29
64792;BME280;51226;47.504;19.074;2023-01-19T16:11:47;99139.19;;;4.63;77.72
64792;BME280;51226;47.504;19.074;2023-01-19T16:14:50;99143.50;;;4.63;77.13
64792;BME280;51226;47.504;19.074;2023-01-19T16:17:53;99149.03;;;4.51;78.33
64792;BME280;51226;47.504;19.074;2023-01-19T16:20:56;99159.06;;;4.64;76.95
64792;BME280;51226;47.504;19.074;2023-01-19T16:23:59;99166.53;;;4.58;76.97
64792;BME280;51226;47.504;19.074;2023-01-19T16:27:02;99177.16;;;4.45;77.95
64792;BME280;51226;47.504;19.074;2023-01-19T16:30:06;99187.56;;;4.47;77.82
64792;BME280;51226;47.504;19.074;2023-01-19T16:33:09;99180.63;;;4.45;78.05
64792;BME280;51226;47.504;19.074;2023-01-19T16:36:18;99188.22;;;4.42;77.98
64792;BME280;51226;47.504;19.074;2023-01-19T16:39:21;99198.47;;;4.41;78.13
64792;BME280;51226;47.504;19.074;2023-01-19T16:42:24;99211.81;;;4.31;78.23
64792;BME280;51226;47.504;19.074;2023-01-19T16:45:27;99217.53;;;4.23;78.76
64792;BME280;51226;47.504;19.074;2023-01-19T16:48:30;99238.25;;;4.25;79.10
64792;BME280;51226;47.504;19.074;2023-01-19T16:51:36;99245.09;;;4.24;78.98
64792;BME280;51226;47.504;19.074;2023-01-19T16:54:41;99248.56;;;4.25;79.33
64792;BME280;51226;47.504;19.074;2023-01-19T16:57:44;99258.25;;;4.31;78.18
64792;BME280;51226;47.504;19.074;2023-01-19T17:00:47;99255.53;;;4.27;78.03
64792;BME280;51226;47.504;19.074;2023-01-19T17:03:50;99259.75;;;4.25;78.77
64792;BME280;51226;47.504;19.074;2023-01-19T17:06:53;99262.13;;;4.21;79.10
64792;BME280;51226;47.504;19.074;2023-01-19T17:09:57;99264.84;;;4.24;79.25
64792;BME280;51226;47.504;19.074;2023-01-19T17:13:00;99276.41;;;4.32;78.18
64792;BME280;51226;47.504;19.074;2023-01-19T17:16:06;99276.75;;;4.40;77.61
64792;BME280;51226;47.504;19.074;2023-01-19T17:19:13;99285.16;;;4.36;77.44